Time;durP1;ratioP1;P1;durP2;ratioP2;P2;SDS_P1;SDS_P2;PMS_P1;PMS_P2;Temp;Humidity;BMP_temperature;BMP_pressure;BME280_temperature;BME280_humidity;BME280_pressure;Samples;Min_cycle;Max_cycle;Signal;HPM_P1;HPM_P2
2023/09/09 00:00:46;;;;;;;18.10;5.80;;;;;;;20.99;49.68;99423.09;67863;1277;1016073;-65
2023/09/09 00:04:07;;;;;;;20.10;7.00;;;;;;;20.96;49.62;99421.71;67852;1277;1016109;-65
2023/09/09 00:07:11;;;;;;;;;;;;;;;20.90;49.68;99420.59;67877;1278;1017930;-64
2023/09/09 00:10:14;;;;;;;20.40;7.00;;;;;;;20.80;49.75;99424.15;67839;1277;1016183;-65
2023/09/09 00:13:16;;;;;;;;;;;;;;;20.86;49.72;99425.51;67839;1277;1016490;-64
2023/09/09 00:16:19;;;;;;;21.90;6.90;;;;;;;20.89;49.59;99424.55;67838;1278;1016202;-66
2023/09/09 00:19:24;;;;;;;21.10;7.20;;;;;;;20.89;49.91;99419.98;67880;1278;1016513;-65
2023/09/09 00:22:26;;;;;;;17.90;6.30;;;;;;;20.91;49.83;99425.21;67814;1277;1016488;-64
2023/09/09 00:25:29;;;;;;;19.40;6.50;;;;;;;20.87;50.00;99420.83;67806;1277;1018518;-64
2023/09/09 00:28:31;;;;;;;21.60;7.70;;;;;;;20.73;50.10;99417.30;67838;1277;1016661;-65
2023/09/09 00:31:34;;;;;;;18.60;6.30;;;;;;;20.75;50.32;99421.77;67882;1277;1016127;-65
2023/09/09 00:34:36;;;;;;;16.70;6.50;;;;;;;20.84;50.15;99420.09;67817;1277;1019039;-66
2023/09/09 00:37:38;;;;;;;19.60;6.30;;;;;;;20.85;49.99;99415.50;67837;1277;1017146;-66
2023/09/09 00:40:41;;;;;;;;;;;;;;;20.86;49.97;99414.20;67826;1278;1016365;-66
2023/09/09 00:43:43;;;;;;;18.90;7.10;;;;;;;20.82;50.03;99413.13;67887;1277;1016389;-66
2023/09/09 00:46:46;;;;;;;19.80;7.00;;;;;;;20.78;49.76;99415.48;67866;1278;1016486;-66
2023/09/09 00:49:48;;;;;;;20.50;7.20;;;;;;;20.56;50.11;99416.10;67845;1277;1016284;-66
2023/09/09 00:52:50;;;;;;;20.60;8.00;;;;;;;20.55;49.91;99419.84;67816;1277;1016481;-65
2023/09/09 00:55:53;;;;;;;24.40;8.70;;;;;;;20.57;49.97;99416.47;67833;1277;1018714;-66
2023/09/09 00:58:56;;;;;;;;;;;;;;;20.56;49.96;99412.88;67893;1277;1016601;-62
2023/09/09 01:01:58;;;;;;;22.30;8.50;;;;;;;20.49;50.06;99410.73;67837;1277;1016372;-66
2023/09/09 01:05:01;;;;;;;;;;;;;;;20.48;49.98;99408.14;67819;1277;1016856;-66
2023/09/09 01:08:03;;;;;;;21.30;8.00;;;;;;;20.37;49.91;99407.15;67806;1277;1016293;-65
2023/09/09 01:11:05;;;;;;;21.50;7.80;;;;;;;20.38;50.08;99412.23;67869;1277;1016524;-65
2023/09/09 01:14:08;;;;;;;20.90;7.70;;;;;;;20.45;49.81;99416.04;67851;1277;1016271;-66
2023/09/09 01:17:10;;;;;;;19.10;6.90;;;;;;;20.33;49.90;99415.68;67841;1277;1016483;-66
2023/09/09 01:20:13;;;;;;;20.80;7.40;;;;;;;20.26;49.87;99417.02;67810;1277;1016481;-65
2023/09/09 01:23:16;;;;;;;14.20;4.70;;;;;;;20.24;49.98;99415.80;67883;1277;1016488;-65
2023/09/09 01:26:18;;;;;;;16.40;5.10;;;;;;;20.15;50.11;99413.04;67868;1277;1016886;-67
2023/09/09 01:29:21;;;;;;;18.80;5.70;;;;;;;20.12;50.35;99412.50;67799;1277;1017523;-65
2023/09/09 01:32:23;;;;;;;19.10;6.90;;;;;;;20.07;50.46;99414.29;67799;1277;1016291;-66
2023/09/09 01:35:25;;;;;;;20.10;6.90;;;;;;;20.17;50.07;99410.27;67838;1277;1016517;-67
2023/09/09 01:38:28;;;;;;;22.80;7.10;;;;;;;20.11;50.08;99407.43;67863;1277;1016343;-66
2023/09/09 01:41:30;;;;;;;22.10;7.30;;;;;;;20.05;50.22;99403.48;67826;1277;1016412;-66
2023/09/09 01:44:33;;;;;;;18.90;6.70;;;;;;;20.06;50.25;99401.86;67797;1277;1019248;-66
2023/09/09 01:47:35;;;;;;;20.20;6.50;;;;;;;20.06;50.16;99394.14;67746;1277;1016700;-65
2023/09/09 01:50:37;;;;;;;18.60;6.60;;;;;;;20.00;50.01;99389.59;67829;1277;1016920;-65
2023/09/09 01:53:40;;;;;;;23.60;7.40;;;;;;;20.10;50.12;99389.04;67867;1277;1016500;-65
2023/09/09 01:56:42;;;;;;;19.60;6.40;;;;;;;20.16;49.80;99386.72;67846;1277;1016456;-65
2023/09/09 01:59:44;;;;;;;21.40;7.70;;;;;;;20.20;49.65;99389.55;67793;1277;1016404;-65
2023/09/09 02:02:47;;;;;;;21.30;7.40;;;;;;;20.07;49.77;99396.97;67758;1277;1016388;-65
2023/09/09 02:05:49;;;;;;;17.70;6.50;;;;;;;19.88;49.78;99402.38;67846;1278;1016387;-64
2023/09/09 02:08:52;;;;;;;17.30;6.10;;;;;;;19.79;49.75;99400.58;67871;1277;1016911;-63
2023/09/09 02:11:54;;;;;;;18.70;6.20;;;;;;;19.72;49.91;99405.42;67857;1277;1016205;-64
2023/09/09 02:14:56;;;;;;;19.20;6.90;;;;;;;19.66;49.81;99404.46;67851;1277;1017142;-65
2023/09/09 02:17:59;;;;;;;20.50;7.50;;;;;;;19.64;49.92;99400.80;67821;1277;1016909;-64
2023/09/09 02:21:02;;;;;;;;;;;;;;;19.67;49.86;99400.36;67835;1277;1016256;-65
2023/09/09 02:24:04;;;;;;;20.90;7.60;;;;;;;19.45;50.39;99406.05;67886;1277;1017190;-65
2023/09/09 02:27:07;;;;;;;20.00;6.40;;;;;;;19.48;50.47;99406.86;67823;1277;1015841;-65
2023/09/09 02:30:09;;;;;;;20.80;7.30;;;;;;;19.59;50.27;99405.45;67825;1277;1016512;-66
2023/09/09 02:33:12;;;;;;;22.50;7.80;;;;;;;19.56;50.22;99404.33;67818;1277;1016199;-64
2023/09/09 02:36:14;;;;;;;20.70;7.80;;;;;;;19.64;49.81;99407.38;67788;1277;1016681;-66
2023/09/09 02:39:17;;;;;;;20.00;7.00;;;;;;;19.47;49.88;99405.82;67849;1277;1016395;-65
2023/09/09 02:42:19;;;;;;;20.80;7.40;;;;;;;19.23;50.25;99411.15;67833;1277;1017142;-65
2023/09/09 02:45:22;;;;;;;20.80;7.50;;;;;;;19.14;50.56;99411.77;67785;1277;1016249;-65
2023/09/09 02:48:24;;;;;;;22.00;8.20;;;;;;;19.22;50.53;99415.32;67842;1277;1016402;-64
2023/09/09 02:51:27;;;;;;;22.10;7.30;;;;;;;19.19;50.20;99413.95;67864;1277;1015897;-65
2023/09/09 02:54:29;;;;;;;22.40;7.40;;;;;;;19.12;50.44;99411.77;67835;1277;1016482;-66
2023/09/09 02:57:32;;;;;;;22.20;8.10;;;;;;;19.16;50.45;99414.20;67832;1277;1016359;-65
2023/09/09 03:00:34;;;;;;;21.40;8.00;;;;;;;19.16;50.63;99418.34;67847;1277;1016371;-66
2023/09/09 03:03:36;;;;;;;21.80;7.50;;;;;;;19.15;50.53;99417.73;67868;1277;1016262;-65
2023/09/09 03:06:39;;;;;;;19.10;6.60;;;;;;;18.92;50.79;99418.84;67877;1277;1017304;-66
2023/09/09 03:09:41;;;;;;;19.70;7.10;;;;;;;18.91;50.72;99418.50;67829;1277;1016426;-65
2023/09/09 03:12:44;;;;;;;20.10;7.50;;;;;;;19.05;50.47;99420.49;67818;1277;1018800;-65
2023/09/09 03:15:46;;;;;;;22.20;7.40;;;;;;;19.22;49.97;99415.35;67822;1277;1018957;-65
2023/09/09 03:18:48;;;;;;;22.90;7.70;;;;;;;19.25;49.94;99415.56;67809;1277;1016473;-65
2023/09/09 03:21:51;;;;;;;21.60;7.90;;;;;;;19.10;50.14;99419.67;67801;1277;1016458;-65
2023/09/09 03:24:53;;;;;;;18.90;6.30;;;;;;;18.98;50.24;99421.13;67861;1277;1016081;-65
2023/09/09 03:27:56;;;;;;;19.20;6.90;;;;;;;18.90;50.26;99424.08;67825;1277;1016648;-66
2023/09/09 03:30:58;;;;;;;21.70;7.60;;;;;;;18.87;50.30;99424.00;67807;1277;1016328;-66
2023/09/09 03:34:01;;;;;;;23.10;7.60;;;;;;;18.92;50.40;99420.77;67789;1277;1017404;-66
2023/09/09 03:37:03;;;;;;;;;;;;;;;19.01;50.33;99418.90;67821;1277;1016707;-61
2023/09/09 03:40:06;;;;;;;21.20;7.40;;;;;;;19.04;50.13;99419.20;67856;1277;1016434;-60
2023/09/09 03:43:09;;;;;;;24.50;7.20;;;;;;;19.00;50.30;99418.74;67870;1277;1016595;-65
2023/09/09 03:46:11;;;;;;;21.00;7.90;;;;;;;19.02;50.32;99419.49;67814;1277;1016192;-65
2023/09/09 03:49:14;;;;;;;23.60;8.10;;;;;;;19.05;50.25;99418.20;67841;1277;1016322;-65
2023/09/09 03:52:17;;;;;;;20.80;8.00;;;;;;;19.05;50.07;99413.95;67802;1277;1016388;-63
2023/09/09 03:55:19;;;;;;;20.50;7.50;;;;;;;19.03;49.78;99412.68;67852;1277;1016497;-65
2023/09/09 03:58:23;;;;;;;22.70;8.10;;;;;;;18.97;49.79;99413.21;67886;1277;1016472;-66
2023/09/09 04:01:26;;;;;;;21.50;7.80;;;;;;;18.90;50.00;99412.40;67871;1277;1016007;-64
2023/09/09 04:04:28;;;;;;;19.80;7.20;;;;;;;18.98;49.96;99411.23;67861;1277;1017627;-64
2023/09/09 04:07:35;;;;;;;20.70;6.70;;;;;;;18.87;49.89;99412.79;67808;1277;1016313;-64
2023/09/09 04:10:38;;;;;;;21.90;7.70;;;;;;;18.91;49.79;99409.70;67816;1277;1016518;-63
2023/09/09 04:13:40;;;;;;;23.80;7.70;;;;;;;18.86;49.91;99407.07;67772;1277;1016864;-64
2023/09/09 04:16:43;;;;;;;22.00;7.80;;;;;;;18.92;49.87;99403.23;67772;1277;1018753;-65
2023/09/09 04:19:45;;;;;;;18.80;7.00;;;;;;;18.97;49.79;99409.88;67764;1277;1016402;-64
2023/09/09 04:22:48;;;;;;;20.20;6.80;;;;;;;18.94;49.79;99411.49;67802;1277;1016084;-65
2023/09/09 04:25:50;;;;;;;;;;;;;;;18.93;49.76;99413.23;67835;1277;1016460;-65
2023/09/09 04:28:53;;;;;;;23.00;8.00;;;;;;;18.91;49.82;99415.14;67824;1277;1017238;-65
2023/09/09 04:31:55;;;;;;;;;;;;;;;18.95;49.88;99416.63;67827;1277;1016483;-64
2023/09/09 04:34:58;;;;;;;21.00;7.70;;;;;;;18.96;49.97;99420.40;67847;1277;1016215;-65
2023/09/09 04:38:01;;;;;;;22.40;8.00;;;;;;;19.04;49.95;99420.06;67823;1277;1016416;-65
2023/09/09 04:41:04;;;;;;;19.10;7.30;;;;;;;19.18;49.83;99418.67;67852;1253;1016476;-64
2023/09/09 04:44:07;;;;;;;21.80;8.00;;;;;;;19.35;49.54;99419.80;67845;1277;1016357;-64
2023/09/09 04:47:10;;;;;;;22.40;8.10;;;;;;;19.39;49.75;99421.59;67830;1277;1016570;-65
2023/09/09 04:50:13;;;;;;;22.10;8.00;;;;;;;19.53;49.40;99420.20;67845;1277;1016586;-64
2023/09/09 04:53:15;;;;;;;21.70;7.70;;;;;;;19.57;49.42;99417.17;67845;1277;1016399;-64
2023/09/09 04:56:18;;;;;;;22.80;7.90;;;;;;;19.75;49.30;99419.67;67873;1277;1018278;-64
2023/09/09 04:59:22;;;;;;;;;;;;;;;19.94;49.23;99416.40;67849;1277;1016428;-64
2023/09/09 05:02:24;;;;;;;23.10;7.90;;;;;;;20.04;49.28;99418.11;67808;1277;1018532;-64
2023/09/09 05:05:28;;;;;;;24.60;8.00;;;;;;;20.16;49.30;99423.88;67868;1277;1016520;-64
2023/09/09 05:08:31;;;;;;;23.00;7.50;;;;;;;20.23;49.42;99423.38;67797;1277;1016472;-65
2023/09/09 05:11:34;;;;;;;23.30;8.40;;;;;;;20.41;49.66;99425.83;67824;1277;1016186;-64
2023/09/09 05:14:36;;;;;;;22.30;8.30;;;;;;;20.70;49.68;99426.16;67835;1277;1016313;-64
2023/09/09 05:17:39;;;;;;;21.90;8.10;;;;;;;20.94;49.56;99428.76;67823;1277;1016412;-65
2023/09/09 05:20:42;;;;;;;22.50;7.80;;;;;;;21.16;49.59;99432.48;67855;1277;1019345;-64
2023/09/09 05:23:44;;;;;;;23.20;8.40;;;;;;;21.36;49.35;99436.77;67843;1277;1016340;-64
2023/09/09 05:26:47;;;;;;;24.50;8.30;;;;;;;21.58;49.11;99434.50;67820;1277;1016538;-65
2023/09/09 05:29:50;;;;;;;21.50;7.90;;;;;;;21.84;49.01;99437.55;67846;1277;1015971;-64
2023/09/09 05:32:53;;;;;;;22.30;8.40;;;;;;;22.00;49.02;99436.14;67810;1277;1016520;-62
2023/09/09 05:35:56;;;;;;;20.80;8.30;;;;;;;22.17;49.20;99435.52;67854;1277;1018493;-65
2023/09/09 05:39:00;;;;;;;22.80;8.40;;;;;;;22.57;48.54;99437.81;67810;1277;1016442;-64
2023/09/09 05:42:05;;;;;;;22.00;8.70;;;;;;;22.70;48.42;99439.30;67809;1277;1016526;-63
2023/09/09 05:45:09;;;;;;;26.70;9.00;;;;;;;22.91;48.61;99444.52;67865;1277;1016640;-64
2023/09/09 05:48:12;;;;;;;23.40;9.20;;;;;;;23.24;48.48;99441.52;67813;1277;1017215;-65
2023/09/09 05:51:14;;;;;;;23.20;9.10;;;;;;;23.53;48.59;99441.70;67878;1277;1019277;-63
2023/09/09 05:54:17;;;;;;;25.30;9.10;;;;;;;23.91;48.40;99434.41;67844;1277;1016457;-65
2023/09/09 05:57:20;;;;;;;23.40;8.80;;;;;;;24.28;48.03;99431.94;67847;1277;1016259;-65
2023/09/09 06:00:23;;;;;;;25.10;9.50;;;;;;;24.58;47.97;99437.20;67799;1277;1016396;-66
2023/09/09 06:03:26;;;;;;;21.80;8.60;;;;;;;24.77;47.99;99438.96;67882;1277;1016299;-63
2023/09/09 06:06:28;;;;;;;;;;;;;;;24.91;48.36;99435.88;67208;1277;1016330;-63
2023/09/09 06:09:31;;;;;;;22.40;8.90;;;;;;;25.20;48.05;99439.19;67810;1277;1016525;-63
2023/09/09 06:12:34;;;;;;;23.60;8.90;;;;;;;25.61;47.88;99440.02;67854;1277;1016505;-62
2023/09/09 06:15:37;;;;;;;22.50;9.20;;;;;;;25.98;47.77;99439.76;67826;1277;1016459;-63
2023/09/09 06:18:40;;;;;;;22.40;9.30;;;;;;;26.26;47.68;99442.15;67883;1277;1015908;-64
2023/09/09 06:21:44;;;;;;;24.00;9.20;;;;;;;26.56;47.57;99446.95;67780;1277;1016399;-64
2023/09/09 06:24:47;;;;;;;24.30;9.10;;;;;;;26.84;47.48;99451.04;67807;1277;1016029;-64
2023/09/09 06:27:50;;;;;;;22.50;9.40;;;;;;;27.05;47.35;99454.73;67803;1277;1017165;-63
2023/09/09 06:30:52;;;;;;;23.20;9.40;;;;;;;27.33;47.22;99463.83;67871;1277;1016387;-64
2023/09/09 06:33:55;;;;;;;23.20;9.20;;;;;;;27.60;47.09;99467.95;67880;1277;1016496;-63
2023/09/09 06:36:59;;;;;;;24.00;9.50;;;;;;;27.91;46.68;99465.29;67824;1277;1016317;-64
2023/09/09 06:40:02;;;;;;;21.40;8.50;;;;;;;28.02;46.66;99469.70;67837;1277;1016040;-64
2023/09/09 06:43:05;;;;;;;22.60;8.90;;;;;;;28.23;46.22;99471.78;67826;1277;1016354;-64
2023/09/09 06:46:08;;;;;;;21.60;8.60;;;;;;;28.51;46.07;99471.66;67856;1277;1019180;-63
2023/09/09 06:49:11;;;;;;;21.80;8.90;;;;;;;28.79;46.01;99468.96;67845;1277;1016308;-64
2023/09/09 06:52:13;;;;;;;23.00;8.50;;;;;;;29.03;45.88;99471.86;67800;1277;1016953;-64
2023/09/09 06:55:16;;;;;;;22.00;8.30;;;;;;;29.29;45.33;99476.30;67794;1277;1016164;-64
2023/09/09 06:58:18;;;;;;;23.00;9.00;;;;;;;29.50;45.04;99477.67;67808;1277;1016426;-63
2023/09/09 07:01:20;;;;;;;22.20;8.90;;;;;;;29.64;44.81;99478.98;67768;1277;1016497;-63
2023/09/09 07:04:23;;;;;;;21.30;8.30;;;;;;;29.91;45.02;99477.09;67798;1277;1018985;-64
2023/09/09 07:07:25;;;;;;;21.00;7.80;;;;;;;30.31;44.06;99473.38;67758;1277;1016221;-64
2023/09/09 07:10:28;;;;;;;23.60;8.70;;;;;;;30.72;43.56;99474.20;67753;1277;1016401;-64
2023/09/09 07:13:30;;;;;;;21.20;8.20;;;;;;;30.96;42.87;99473.17;67837;1277;1016114;-64
2023/09/09 07:16:33;;;;;;;21.10;8.40;;;;;;;31.29;42.21;99472.74;67859;1277;1016295;-64
2023/09/09 07:19:35;;;;;;;21.90;8.10;;;;;;;31.56;41.98;99477.33;67834;1277;1017507;-65
2023/09/09 07:22:38;;;;;;;22.40;8.20;;;;;;;31.84;41.63;99478.64;67785;1277;1016857;-64
2023/09/09 07:25:40;;;;;;;19.80;7.60;;;;;;;32.16;41.20;99478.76;67873;1277;1016216;-64
2023/09/09 07:28:43;;;;;;;21.30;7.90;;;;;;;32.47;41.01;99478.75;67858;1277;1016309;-64
2023/09/09 07:31:45;;;;;;;21.20;7.40;;;;;;;32.61;40.29;99479.89;67842;1277;1016423;-64
2023/09/09 07:34:48;;;;;;;19.50;7.40;;;;;;;32.59;40.43;99482.33;67817;1277;1016462;-64
2023/09/09 07:37:51;;;;;;;20.80;7.50;;;;;;;32.77;40.57;99480.35;67864;1277;1016609;-64
2023/09/09 07:40:54;;;;;;;19.70;7.60;;;;;;;33.05;40.13;99479.12;67798;1277;1016535;-64
2023/09/09 07:43:56;;;;;;;20.90;7.30;;;;;;;33.29;39.57;99484.70;67862;1277;1016089;-64
2023/09/09 07:46:59;;;;;;;20.30;7.30;;;;;;;33.29;39.36;99482.20;67856;1277;1016706;-63
2023/09/09 07:50:01;;;;;;;19.80;7.50;;;;;;;33.36;39.35;99480.81;67849;1277;1016588;-64
2023/09/09 07:53:04;;;;;;;21.20;7.70;;;;;;;33.60;39.23;99479.07;67816;1277;1016467;-63
2023/09/09 07:56:06;;;;;;;19.70;6.90;;;;;;;33.92;38.12;99480.72;67846;1277;1016784;-65
2023/09/09 07:59:09;;;;;;;19.70;7.00;;;;;;;34.02;38.03;99478.86;67845;1277;1016608;-63
2023/09/09 08:02:13;;;;;;;19.50;7.30;;;;;;;34.24;38.01;99474.19;67827;1277;1016518;-64
2023/09/09 08:05:15;;;;;;;20.00;6.40;;;;;;;34.59;37.25;99475.86;67868;1277;1016640;-64
2023/09/09 08:08:21;;;;;;;17.40;6.20;;;;;;;34.70;36.68;99474.80;67831;1277;1017035;-63
2023/09/09 08:11:23;;;;;;;19.80;6.50;;;;;;;34.87;37.14;99475.21;67866;1277;1016790;-63
2023/09/09 08:14:26;;;;;;;18.40;5.80;;;;;;;34.99;35.78;99471.36;67872;1277;1016621;-63
2023/09/09 08:17:28;;;;;;;17.90;5.70;;;;;;;34.79;35.81;99465.48;67822;1277;1016507;-64
2023/09/09 08:20:30;;;;;;;19.60;6.40;;;;;;;34.97;36.01;99466.23;67737;1277;1016292;-64
2023/09/09 08:23:33;;;;;;;17.10;5.60;;;;;;;35.33;35.43;99468.77;67767;1277;1016388;-62
2023/09/09 08:26:35;;;;;;;16.90;5.50;;;;;;;35.56;35.08;99471.88;67811;1277;1016550;-63
2023/09/09 08:29:38;;;;;;;16.40;5.30;;;;;;;35.77;34.66;99469.91;67826;1277;1016195;-62
2023/09/09 08:32:40;;;;;;;18.80;5.80;;;;;;;35.87;34.55;99470.63;67728;1277;1016788;-63
2023/09/09 08:35:43;;;;;;;17.50;5.90;;;;;;;36.01;34.30;99473.72;67810;1277;1018845;-63
2023/09/09 08:38:45;;;;;;;19.10;5.70;;;;;;;36.04;33.31;99473.73;67868;1277;1016524;-63
2023/09/09 08:41:48;;;;;;;18.00;5.80;;;;;;;35.96;33.77;99471.94;67870;1277;1016263;-63
2023/09/09 08:44:50;;;;;;;17.30;5.90;;;;;;;36.07;33.51;99470.23;67806;1277;1016477;-64
2023/09/09 08:47:52;;;;;;;17.10;5.90;;;;;;;36.17;33.64;99469.27;67816;1277;1016237;-62
2023/09/09 08:50:55;;;;;;;17.90;5.90;;;;;;;36.32;33.39;99470.95;67830;1277;1016199;-64
2023/09/09 08:53:57;;;;;;;20.00;6.20;;;;;;;36.42;33.11;99467.91;67833;1277;1016754;-63
2023/09/09 08:57:00;;;;;;;18.60;6.30;;;;;;;36.58;33.23;99468.15;67851;1277;1015938;-64
2023/09/09 09:10:57;;;;;;;20.10;7.20;;;;;;;36.85;31.98;99456.77;67837;1278;1017344;-63
2023/09/09 09:14:00;;;;;;;18.90;6.20;;;;;;;37.00;31.90;99456.91;67810;1278;1018777;-64
2023/09/09 09:17:02;;;;;;;17.20;5.50;;;;;;;37.19;31.33;99452.95;67780;1278;1016458;-64
2023/09/09 09:20:07;;;;;;;18.00;6.00;;;;;;;37.21;31.43;99449.66;67773;1278;1017813;-62
2023/09/09 09:23:09;;;;;;;15.30;5.70;;;;;;;37.02;30.22;99452.95;67795;1278;1016463;-64
2023/09/09 09:26:12;;;;;;;17.70;6.00;;;;;;;37.19;30.79;99447.98;67852;1278;1018601;-64
2023/09/09 09:29:14;;;;;;;17.60;6.50;;;;;;;37.49;30.11;99444.23;67750;1278;1016361;-64
2023/09/09 09:32:17;;;;;;;17.60;6.00;;;;;;;37.53;30.04;99440.27;67767;1278;1016681;-63
2023/09/09 09:35:20;;;;;;;17.40;5.70;;;;;;;37.64;30.08;99439.23;67839;1278;1016745;-63
2023/09/09 09:38:22;;;;;;;18.60;5.70;;;;;;;37.86;30.25;99440.25;67792;1278;1020155;-64
2023/09/09 09:41:25;;;;;;;19.10;5.70;;;;;;;37.91;29.74;99437.64;67767;1278;1016515;-63
2023/09/09 09:44:28;;;;;;;18.70;5.90;;;;;;;38.00;29.57;99440.27;67823;1278;1016394;-64
2023/09/09 09:47:30;;;;;;;16.90;5.70;;;;;;;38.12;29.42;99436.60;67791;1278;1018393;-64
2023/09/09 09:50:34;;;;;;;17.20;5.50;;;;;;;38.24;29.36;99434.86;67755;1278;1016122;-64
2023/09/09 09:53:36;;;;;;;17.30;5.30;;;;;;;38.35;29.17;99437.38;67800;1278;1016149;-64
2023/09/09 09:56:39;;;;;;;17.00;5.60;;;;;;;38.50;28.54;99440.21;67756;1278;1016304;-64
2023/09/09 09:59:41;;;;;;;15.80;5.30;;;;;;;38.73;28.61;99439.56;67758;1278;1016133;-64
2023/09/09 10:02:44;;;;;;;17.20;5.20;;;;;;;38.89;28.30;99437.14;67839;1278;1016427;-64
2023/09/09 10:05:47;;;;;;;18.10;6.10;;;;;;;38.96;27.78;99433.07;67824;1278;1016331;-64
2023/09/09 10:08:49;;;;;;;21.60;6.80;;;;;;;38.92;27.82;99433.42;67745;1278;1016537;-64
2023/09/09 10:11:52;;;;;;;18.80;6.20;;;;;;;38.90;28.04;99434.90;67770;1278;1016330;-64
2023/09/09 10:14:55;;;;;;;17.00;5.80;;;;;;;38.88;27.85;99431.55;67742;1278;1016377;-64
2023/09/09 10:17:57;;;;;;;18.90;5.80;;;;;;;39.02;27.01;99432.22;67713;1278;1019355;-65
2023/09/09 10:21:00;;;;;;;19.40;6.00;;;;;;;39.07;27.55;99434.48;67721;1278;1016355;-64
2023/09/09 10:24:02;;;;;;;15.90;5.40;;;;;;;39.04;26.78;99431.95;67763;1279;1016265;-65
2023/09/09 10:27:05;;;;;;;16.20;5.40;;;;;;;38.89;26.40;99430.50;67693;1279;1016058;-64
2023/09/09 10:30:08;;;;;;;18.60;5.10;;;;;;;38.73;26.83;99432.10;67694;1279;1018139;-64
2023/09/09 10:33:10;;;;;;;16.20;5.70;;;;;;;39.14;26.93;99429.81;67740;1279;1018944;-63
2023/09/09 10:36:13;;;;;;;14.60;5.10;;;;;;;39.34;26.53;99429.64;67740;1279;1016555;-64
2023/09/09 10:39:15;;;;;;;18.50;5.50;;;;;;;39.25;26.32;99425.87;67703;1279;1016667;-63
2023/09/09 10:42:18;;;;;;;17.40;5.60;;;;;;;39.60;26.75;99424.18;67734;1279;1016594;-64
2023/09/09 10:45:20;;;;;;;18.80;5.60;;;;;;;40.00;26.33;99426.67;67748;1279;1016349;-64
2023/09/09 10:48:24;;;;;;;15.20;5.00;;;;;;;39.90;25.72;99422.05;67719;1279;1017814;-64
2023/09/09 10:51:27;;;;;;;15.70;5.20;;;;;;;39.84;26.05;99422.53;67766;1279;1017792;-65
2023/09/09 10:54:29;;;;;;;14.50;5.20;;;;;;;39.49;25.85;99422.55;67702;1279;1016423;-64
2023/09/09 10:57:32;;;;;;;16.10;5.10;;;;;;;39.53;26.37;99417.17;67752;1279;1016454;-64
2023/09/09 11:00:34;;;;;;;17.50;5.30;;;;;;;39.60;26.14;99417.37;67691;1279;1016690;-64
2023/09/09 11:03:37;;;;;;;17.10;5.10;;;;;;;39.62;26.23;99418.55;67676;1279;1016291;-64
2023/09/09 11:06:39;;;;;;;14.70;5.20;;;;;;;39.70;26.08;99416.96;67696;1279;1016255;-64
2023/09/09 11:09:42;;;;;;;19.20;5.40;;;;;;;39.88;26.01;99412.80;67782;1278;1016475;-64
2023/09/09 11:12:45;;;;;;;16.50;5.10;;;;;;;39.84;25.65;99407.88;67801;1278;1016327;-64
2023/09/09 11:15:47;;;;;;;16.70;5.40;;;;;;;39.75;25.84;99405.55;67758;1278;1016305;-64
2023/09/09 11:18:50;;;;;;;18.10;5.40;;;;;;;39.73;25.90;99403.79;67764;1278;1016495;-64
2023/09/09 11:21:52;;;;;;;17.50;5.20;;;;;;;39.66;25.88;99400.55;67780;1278;1016362;-64
2023/09/09 11:24:55;;;;;;;15.70;5.20;;;;;;;39.51;25.27;99400.65;67833;1277;1018105;-64
2023/09/09 11:27:57;;;;;;;15.10;5.00;;;;;;;39.62;25.63;99396.87;67796;1278;1016485;-63
2023/09/09 11:31:00;;;;;;;17.50;5.60;;;;;;;39.74;25.86;99395.45;67773;1278;1018020;-64
2023/09/09 11:34:03;;;;;;;17.60;5.40;;;;;;;39.81;25.77;99398.48;67827;1278;1018455;-64
2023/09/09 11:37:06;;;;;;;15.90;5.70;;;;;;;39.84;25.35;99391.11;67746;1278;1016439;-64
2023/09/09 11:40:08;;;;;;;18.60;5.60;;;;;;;39.92;25.56;99386.95;67757;1278;1016508;-64
2023/09/09 11:43:11;;;;;;;17.50;5.50;;;;;;;39.84;25.61;99393.43;67802;1278;1016485;-64
2023/09/09 11:46:14;;;;;;;18.70;5.50;;;;;;;39.69;25.83;99390.27;67783;1278;1016734;-64
2023/09/09 11:49:16;;;;;;;16.30;5.80;;;;;;;39.81;25.96;99393.04;67743;1278;1016029;-63
2023/09/09 11:52:19;;;;;;;15.40;5.50;;;;;;;39.85;25.46;99392.06;67802;1278;1016482;-64
2023/09/09 11:55:21;;;;;;;15.90;5.50;;;;;;;39.85;25.54;99390.84;67796;1278;1016732;-64
2023/09/09 11:58:24;;;;;;;18.60;6.10;;;;;;;39.82;26.04;99385.19;67796;1278;1016153;-64
2023/09/09 12:01:26;;;;;;;18.00;6.00;;;;;;;39.91;25.69;99379.54;67765;1278;1016483;-63
2023/09/09 12:04:29;;;;;;;20.90;5.90;;;;;;;39.76;26.12;99381.17;67799;1278;1017087;-64
2023/09/09 12:07:32;;;;;;;16.40;5.60;;;;;;;39.65;25.89;99380.05;67772;1278;1016429;-64
2023/09/09 12:10:34;;;;;;;16.00;5.00;;;;;;;39.43;25.85;99376.66;67746;1278;1016692;-64
2023/09/09 12:13:37;;;;;;;16.40;5.80;;;;;;;39.52;26.23;99376.62;67766;1278;1019309;-64
2023/09/09 12:16:40;;;;;;;16.30;5.50;;;;;;;39.63;25.89;99374.25;67775;1278;1016381;-64
2023/09/09 12:19:42;;;;;;;15.50;5.30;;;;;;;39.73;26.21;99378.43;67779;1278;1016446;-64
2023/09/09 12:22:47;;;;;;;20.50;5.60;;;;;;;39.86;25.91;99372.84;67718;1278;1016641;-64
2023/09/09 12:25:49;;;;;;;17.20;5.50;;;;;;;39.94;25.74;99370.31;67783;1278;1016381;-64
2023/09/09 12:28:52;;;;;;;18.30;5.40;;;;;;;39.88;25.29;99368.06;67643;1278;1016285;-64
2023/09/09 12:31:54;;;;;;;16.80;5.10;;;;;;;39.91;25.49;99365.04;67625;1278;1016366;-64
2023/09/09 12:34:57;;;;;;;17.00;5.50;;;;;;;40.10;25.08;99361.92;67603;1278;1016518;-64
2023/09/09 12:37:59;;;;;;;17.60;5.50;;;;;;;40.31;25.11;99361.34;67666;1278;1016526;-64
2023/09/09 12:41:02;;;;;;;15.90;5.60;;;;;;;40.37;25.05;99359.31;67661;1278;1016473;-64
2023/09/09 12:44:04;;;;;;;16.50;5.70;;;;;;;40.55;24.84;99356.66;67739;1278;1016709;-64
2023/09/09 12:47:07;;;;;;;16.10;5.50;;;;;;;40.51;24.52;99358.52;67760;1278;1017465;-64
2023/09/09 12:50:09;;;;;;;20.20;6.10;;;;;;;40.11;24.33;99360.71;67741;1278;1017664;-64
2023/09/09 12:53:12;;;;;;;14.70;4.80;;;;;;;39.99;24.39;99357.80;67805;1278;1015982;-64
2023/09/09 12:56:14;;;;;;;18.40;5.30;;;;;;;39.88;24.72;99354.38;67782;1278;1016482;-64
2023/09/09 12:59:17;;;;;;;18.00;5.30;;;;;;;39.93;25.14;99357.19;67780;1278;1016482;-64
2023/09/09 13:02:19;;;;;;;15.70;5.00;;;;;;;40.14;25.29;99361.82;67754;1278;1016463;-63
2023/09/09 13:05:22;;;;;;;13.90;5.20;;;;;;;40.42;25.30;99361.99;67823;1278;1017010;-64
2023/09/09 13:08:24;;;;;;;16.70;5.20;;;;;;;40.60;25.33;99363.11;67777;1278;1016399;-64
2023/09/09 13:11:27;;;;;;;17.90;5.50;;;;;;;40.80;24.72;99362.23;67735;1278;1018446;-64
2023/09/09 13:14:29;;;;;;;15.90;5.70;;;;;;;40.91;24.35;99365.13;67783;1278;1017058;-64
2023/09/09 13:17:32;;;;;;;15.10;5.10;;;;;;;41.03;24.01;99365.78;67793;1278;1015947;-64
2023/09/09 13:20:34;;;;;;;14.90;4.90;;;;;;;41.25;24.13;99365.06;67747;1278;1018727;-64
2023/09/09 13:23:37;;;;;;;14.80;4.80;;;;;;;41.20;23.59;99362.51;67719;1278;1016490;-64
2023/09/09 13:26:39;;;;;;;15.70;5.30;;;;;;;41.20;23.62;99360.30;67763;1278;1016709;-64
2023/09/09 13:29:42;;;;;;;16.30;5.10;;;;;;;41.21;24.04;99360.19;67774;1278;1016394;-64
2023/09/09 13:32:44;;;;;;;15.30;5.40;;;;;;;41.01;23.32;99357.98;67794;1278;1016524;-64
2023/09/09 13:35:47;;;;;;;18.50;5.50;;;;;;;40.43;23.65;99357.70;67736;1278;1018070;-64
2023/09/09 13:38:49;;;;;;;16.20;5.40;;;;;;;40.62;24.24;99356.58;67734;1278;1016157;-64
2023/09/09 13:41:52;;;;;;;14.00;4.70;;;;;;;40.72;23.89;99360.28;67800;1278;1017008;-65
2023/09/09 13:44:54;;;;;;;15.60;4.90;;;;;;;40.72;23.88;99358.19;67765;1278;1016411;-64
2023/09/09 13:47:57;;;;;;;18.10;5.40;;;;;;;40.53;24.02;99356.51;67705;1278;1016394;-64
2023/09/09 13:50:59;;;;;;;16.80;5.60;;;;;;;40.40;24.48;99358.98;67758;1278;1016451;-64
2023/09/09 13:54:02;;;;;;;20.60;5.20;;;;;;;40.24;24.40;99356.64;67794;1278;1017885;-64
2023/09/09 13:57:05;;;;;;;15.90;5.50;;;;;;;39.89;24.62;99353.02;67735;1278;1016214;-64
2023/09/09 14:00:08;;;;;;;19.80;5.50;;;;;;;39.49;24.70;99354.89;67795;1278;1016500;-64
2023/09/09 14:03:11;;;;;;;16.90;5.50;;;;;;;39.18;24.58;99348.55;67794;1278;1016294;-64